Blackpool, United Kingdom

12:02 PM BST on May 23, 2017 (GMT +0100)
blackpool | | Change Station

Elev 85 ft 53.83 °N, 3.04 °W | Updated 19 seconds ago

Clear
Clear
63.1 °F
Feels Like 63.1 °F
N
18.4
Wind Variable Wind from West
Gusts 18.4 mph

Today
High -- | Low -- °F
--% Chance of Precip.
Yesterday
High -- | Low -- °F
Precip. -- in
Pressure 30.12 in
Visibility 6.2 miles
Clouds Few 4000 ft
Dew Point 52 °F
Humidity 68%
Rainfall 0.00 in
Snow Depth Not available.
4:58 AM 9:20 PM
Waning Crescent, 8% visible
METAR EGNH 231050Z 27009KT 9999 FEW040 16/12 Q1020
Pressure 30.12 in
Visibility 6.2 miles
Clouds Few 4000 ft
Dew Point 52 °F
Humidity 68%
Rainfall 0.00 in
Snow Depth Not available.
4:58 AM 9:20 PM
Waning Crescent, 8% visible
METAR EGNH 231050Z 27009KT 9999 FEW040 16/12 Q1020

Get Severe Weather Alerts

Thanks for signing up!

Be on the lookout for a verification email in your inbox.

You'll start receiving the daily forecast at 6 AM.

×

10-Day Weather Forecast

×

Almanac

Astronomy

May. 23, 2017 Rise Set
Actual Time
Civil Twilight
Nautical Twilight
Astronomical Twilight
Moon
Length of Visible Light
Length of Day
Tomorrow will be .
, % of the Moon is Illuminated

Today's Extremes

Country Highs Country Lows

Community

WunderPhotos

Category 6

Welcome to Category 6. This is the collective home for Weather Underground's featured writeups by Dr. Jeff Masters (right), Bob Henson (left), Chris Burt, and other regular contributors.

Nearby

Air Quality

  Air Quality AQ Index Pollutant
Not available.

Snow Depth

Station Depth Elevation

Earthquake Activity

City Distance Mag. Time & Date
Minimum magnitude displayed is 2.5.

Coastal Water Temperatures

Place Temperature

Stations

Nearby Weather Stations

Station Location Temp. Windchill Dew Point Humidity Wind Precip. Elev Updated Type